createdAt,value
2019-03-11T00:01:32.846Z,1.10
2019-03-11T00:04:04.411Z,1.70
2019-03-11T00:06:54.781Z,1.47
2019-03-11T00:09:21.285Z,1.30
2019-03-11T00:11:51.990Z,1.30
2019-03-11T00:14:24.982Z,1.43
2019-03-11T00:16:54.770Z,1.10
2019-03-11T00:19:30.048Z,1.13
2019-03-11T00:22:10.622Z,1.10
2019-03-11T00:24:41.229Z,0.87
2019-03-11T00:27:14.150Z,1.13
2019-03-11T00:29:44.597Z,0.93
2019-03-11T00:32:21.879Z,1.30
2019-03-11T00:34:50.840Z,1.20
2019-03-11T00:37:22.137Z,1.23
2019-03-11T00:39:53.013Z,1.50
2019-03-11T00:42:26.643Z,1.17
2019-03-11T00:44:55.550Z,1.57
2019-03-11T00:47:31.616Z,1.13
2019-03-11T00:50:04.455Z,1.17
2019-03-11T00:52:44.679Z,1.30
2019-03-11T00:55:23.839Z,1.70
2019-03-11T00:58:01.526Z,0.90
2019-03-11T01:00:33.947Z,1.17
2019-03-11T01:03:02.502Z,1.50
2019-03-11T01:05:31.221Z,1.60
2019-03-11T01:08:02.647Z,0.90
2019-03-11T01:10:39.355Z,1.27
2019-03-11T01:13:11.384Z,1.23
2019-03-11T01:15:39.645Z,1.10
2019-03-11T01:18:11.470Z,0.90
2019-03-11T01:20:54.347Z,1.23
2019-03-11T01:23:41.378Z,1.30
2019-03-11T01:26:14.086Z,1.00
2019-03-11T01:28:51.890Z,1.67
2019-03-11T01:31:21.135Z,0.90
2019-03-11T01:33:49.249Z,1.13
2019-03-11T01:36:21.582Z,1.47
2019-03-11T01:38:52.253Z,1.93
2019-03-11T01:41:24.233Z,1.30
2019-03-11T01:43:54.413Z,1.67
2019-03-11T01:46:25.752Z,1.40
2019-03-11T01:49:00.888Z,1.50
2019-03-11T01:51:29.291Z,2.50
2019-03-11T01:53:57.792Z,4.20
2019-03-11T01:56:26.302Z,2.40
2019-03-11T01:59:05.094Z,2.67
2019-03-11T02:01:34.773Z,2.50
2019-03-11T02:04:02.954Z,2.20
2019-03-11T02:06:35.824Z,1.97
2019-03-11T02:09:05.917Z,2.43
2019-03-11T02:11:38.351Z,1.87
2019-03-11T02:14:06.926Z,1.90
2019-03-11T02:16:46.718Z,1.40
2019-03-11T02:19:22.998Z,2.10
2019-03-11T02:21:56.942Z,1.70
2019-03-11T02:24:25.342Z,1.77
2019-03-11T02:26:53.494Z,2.10
2019-03-11T02:29:21.986Z,1.73
2019-03-11T02:31:53.422Z,1.83
2019-03-11T02:34:21.830Z,2.07
2019-03-11T02:36:50.327Z,1.83
2019-03-11T02:39:18.890Z,1.60
2019-03-11T02:41:47.064Z,1.13
2019-03-11T02:44:15.748Z,1.40
2019-03-11T02:46:44.267Z,1.30
2019-03-11T02:49:15.978Z,1.87
2019-03-11T02:51:44.242Z,2.30
2019-03-11T02:54:12.343Z,2.10
2019-03-11T02:56:40.495Z,1.63
2019-03-11T02:59:09.166Z,1.40
2019-03-11T03:01:56.596Z,1.20
2019-03-11T03:04:36.127Z,1.10
2019-03-11T03:07:09.952Z,1.00
2019-03-11T03:12:33.771Z,1.00
2019-03-11T03:15:10.451Z,0.70
2019-03-11T03:18:01.605Z,0.80
2019-03-11T03:20:30.433Z,1.00
2019-03-11T03:23:01.533Z,0.97
2019-03-11T03:25:34.356Z,1.20
2019-03-11T03:28:00.573Z,0.87
2019-03-11T03:30:28.965Z,1.60
2019-03-11T03:32:57.180Z,1.00
2019-03-11T03:35:25.380Z,0.80
2019-03-11T03:37:53.543Z,0.90
2019-03-11T03:40:28.415Z,0.90
2019-03-11T03:43:00.908Z,0.80
2019-03-11T03:45:40.491Z,0.80
2019-03-11T03:48:08.853Z,1.00
2019-03-11T03:50:38.227Z,1.50
2019-03-11T03:53:06.631Z,1.03
2019-03-11T03:58:21.019Z,1.00
2019-03-11T04:00:49.273Z,0.97
2019-03-11T04:03:21.631Z,1.00
2019-03-11T04:05:49.862Z,0.90
2019-03-11T04:08:18.024Z,0.80
2019-03-11T04:10:46.242Z,0.83
2019-03-11T04:13:39.991Z,0.73
2019-03-11T04:16:03.421Z,0.87
2019-03-11T04:18:54.360Z,0.87
2019-03-11T04:21:23.362Z,1.00
2019-03-11T04:24:05.425Z,1.10
2019-03-11T04:26:37.007Z,0.70
2019-03-11T04:29:10.519Z,1.07
2019-03-11T04:31:38.979Z,0.97
2019-03-11T04:34:07.142Z,0.70
2019-03-11T04:36:36.127Z,0.70
2019-03-11T04:39:06.072Z,1.10
2019-03-11T04:41:34.189Z,1.00
2019-03-11T04:44:06.766Z,1.07
2019-03-11T04:46:39.191Z,1.03
2019-03-11T04:49:07.821Z,0.70
2019-03-11T04:51:36.026Z,1.20
2019-03-11T04:54:04.274Z,0.80
2019-03-11T04:56:32.466Z,2.40
2019-03-11T04:59:11.210Z,1.20
2019-03-11T05:01:39.543Z,0.77
2019-03-11T05:04:13.903Z,0.87
2019-03-11T05:06:44.025Z,1.23
2019-03-11T05:09:12.805Z,0.97
2019-03-11T05:11:41.066Z,1.20
2019-03-11T05:14:09.330Z,0.90
2019-03-11T05:16:37.422Z,1.37
2019-03-11T05:19:05.900Z,1.10
2019-03-11T05:21:34.034Z,1.47
2019-03-11T05:24:02.166Z,1.10
2019-03-11T05:26:30.254Z,0.73
2019-03-11T05:28:58.494Z,0.60
2019-03-11T05:31:26.678Z,0.90
2019-03-11T05:33:54.826Z,0.93
2019-03-11T05:36:23.573Z,0.87
2019-03-11T05:38:52.049Z,1.83
2019-03-11T05:41:20.886Z,1.00
2019-03-11T05:43:49.018Z,0.77
2019-03-11T05:46:17.102Z,1.13
2019-03-11T05:48:45.257Z,1.17
2019-03-11T05:51:13.742Z,0.87
2019-03-11T05:53:41.874Z,1.07
2019-03-11T05:56:09.958Z,1.80
2019-03-11T05:58:38.208Z,1.20
2019-03-11T06:01:06.277Z,1.33
2019-03-11T06:03:34.640Z,1.47
2019-03-11T06:06:02.881Z,1.37
2019-03-11T06:08:31.078Z,1.80
2019-03-11T06:10:59.161Z,1.37
2019-03-11T06:13:35.646Z,1.33
2019-03-11T06:15:57.339Z,1.23
2019-03-11T06:18:50.875Z,1.00
2019-03-11T06:21:38.322Z,1.63
2019-03-11T06:24:06.454Z,1.80
2019-03-11T06:26:34.745Z,1.60
2019-03-11T06:29:02.990Z,0.93
2019-03-11T06:31:31.269Z,1.23
2019-03-11T06:33:59.514Z,1.40
2019-03-11T06:36:27.617Z,1.60
2019-03-11T06:39:05.360Z,1.67
2019-03-11T06:41:25.726Z,1.40
2019-03-11T06:43:53.826Z,1.30
2019-03-11T06:46:22.133Z,1.20
2019-03-11T06:48:50.213Z,1.37
2019-03-11T06:51:18.367Z,1.70
2019-03-11T06:53:46.472Z,1.20
2019-03-11T06:56:14.615Z,1.50
2019-03-11T06:58:42.703Z,1.53
2019-03-11T07:01:10.850Z,2.13
2019-03-11T07:03:38.935Z,1.10
2019-03-11T07:06:07.175Z,1.43
2019-03-11T07:08:35.269Z,1.17
2019-03-11T07:11:03.685Z,1.10
2019-03-11T07:13:31.772Z,1.17
2019-03-11T07:16:00.402Z,1.13
2019-03-11T07:18:29.265Z,0.80
2019-03-11T07:20:57.435Z,1.70
2019-03-11T07:23:25.877Z,1.27
2019-03-11T07:25:54.022Z,1.47
2019-03-11T07:28:22.664Z,1.10
2019-03-11T07:30:50.902Z,1.20
2019-03-11T07:33:19.405Z,1.40
2019-03-11T07:35:47.837Z,1.07
2019-03-11T07:38:15.926Z,1.60
2019-03-11T07:40:44.526Z,1.33
2019-03-11T07:43:13.516Z,1.80
2019-03-11T07:45:41.646Z,1.20
2019-03-11T07:48:10.398Z,1.30
2019-03-11T07:50:38.541Z,1.30
2019-03-11T07:53:06.978Z,1.10
2019-03-11T07:55:35.127Z,1.60
2019-03-11T07:58:03.422Z,1.40
2019-03-11T08:00:31.569Z,1.40
2019-03-11T08:02:59.757Z,0.93
2019-03-11T08:05:27.945Z,1.00
2019-03-11T08:07:56.467Z,1.10
2019-03-11T08:10:24.637Z,0.90
2019-03-11T08:12:53.061Z,1.13
2019-03-11T08:15:21.416Z,1.37
2019-03-11T08:17:49.497Z,1.27
2019-03-11T08:20:17.794Z,0.80
2019-03-11T08:22:46.034Z,0.87
2019-03-11T08:25:14.326Z,0.90
2019-03-11T08:27:42.680Z,1.27
2019-03-11T08:30:11.733Z,1.10
2019-03-11T08:32:39.863Z,0.93
2019-03-11T08:35:10.288Z,0.93
2019-03-11T08:37:38.782Z,0.90
2019-03-11T08:40:07.843Z,1.03
2019-03-11T08:42:36.094Z,0.70
2019-03-11T08:45:05.040Z,0.90
2019-03-11T08:47:33.213Z,0.63
2019-03-11T08:50:01.764Z,0.87
2019-03-11T08:52:30.022Z,0.50
2019-03-11T08:54:58.118Z,0.90
2019-03-11T08:57:26.339Z,1.10
2019-03-11T08:59:54.443Z,0.90
2019-03-11T09:02:22.590Z,1.00
2019-03-11T09:04:50.703Z,0.70
2019-03-11T09:07:19.123Z,1.17
2019-03-11T09:09:47.214Z,1.07
2019-03-11T09:12:15.845Z,0.80
2019-03-11T09:14:43.944Z,1.10
2019-03-11T09:17:12.199Z,0.90
2019-03-11T09:19:40.318Z,0.80
2019-03-11T09:22:08.500Z,1.17
2019-03-11T09:24:36.587Z,0.33
2019-03-11T09:27:04.698Z,0.63
2019-03-11T09:29:33.819Z,0.40
2019-03-11T09:32:02.023Z,0.43
2019-03-11T09:34:30.267Z,0.40
2019-03-11T09:36:58.485Z,0.50
2019-03-11T09:39:26.631Z,0.73
2019-03-11T09:41:54.765Z,0.50
2019-03-11T09:44:22.929Z,0.70
2019-03-11T09:46:51.412Z,0.73
2019-03-11T09:49:19.570Z,0.40
2019-03-11T09:51:47.666Z,0.47
2019-03-11T09:54:15.857Z,0.50
2019-03-11T09:56:43.995Z,0.47
2019-03-11T09:59:12.368Z,0.40
2019-03-11T10:01:40.476Z,0.50
2019-03-11T10:04:09.222Z,1.80
2019-03-11T10:06:37.396Z,0.40
2019-03-11T10:09:07.166Z,0.40
2019-03-11T10:11:35.775Z,0.30
2019-03-11T10:14:03.985Z,0.53
2019-03-11T10:16:32.347Z,0.63
2019-03-11T10:19:00.509Z,0.50
2019-03-11T10:21:29.197Z,0.50
2019-03-11T10:23:59.211Z,0.40
2019-03-11T10:26:27.277Z,0.40
2019-03-11T10:28:55.386Z,0.40
2019-03-11T10:31:23.647Z,0.47
2019-03-11T10:33:51.747Z,0.40
2019-03-11T10:36:19.907Z,0.33
2019-03-11T10:38:48.099Z,0.30
2019-03-11T10:41:16.366Z,0.57
2019-03-11T10:43:44.654Z,0.30
2019-03-11T10:46:12.907Z,0.30
2019-03-11T10:48:41.065Z,0.53
2019-03-11T10:51:09.219Z,0.50
2019-03-11T10:53:37.423Z,0.40
2019-03-11T10:56:05.673Z,0.67
2019-03-11T10:58:33.888Z,0.50
2019-03-11T11:01:02.149Z,0.60
2019-03-11T11:03:30.961Z,0.67
2019-03-11T11:05:59.316Z,0.60
2019-03-11T11:08:27.466Z,0.40
2019-03-11T11:10:55.974Z,0.50
2019-03-11T11:13:24.542Z,0.60
2019-03-11T11:15:52.695Z,0.43
2019-03-11T11:18:20.886Z,0.43
2019-03-11T11:20:49.154Z,0.50
2019-03-11T11:23:17.362Z,0.33
2019-03-11T11:25:46.067Z,0.50
2019-03-11T11:28:14.274Z,0.50
2019-03-11T11:30:42.645Z,0.70
2019-03-11T11:33:10.858Z,0.50
2019-03-11T11:35:39.125Z,0.47
2019-03-11T11:38:07.853Z,0.37
2019-03-11T11:40:36.007Z,0.30
2019-03-11T11:43:04.272Z,0.40
2019-03-11T11:45:32.668Z,0.30
2019-03-11T11:48:00.977Z,0.27
2019-03-11T11:50:29.274Z,0.47
2019-03-11T11:52:57.653Z,0.20
2019-03-11T11:55:25.947Z,0.27
2019-03-11T11:57:54.310Z,0.20
2019-03-11T12:00:25.451Z,0.30
2019-03-11T12:02:54.011Z,0.30
2019-03-11T12:05:22.262Z,0.30
2019-03-11T12:07:50.547Z,0.30
2019-03-11T12:10:19.110Z,0.20
2019-03-11T12:12:47.367Z,0.20
2019-03-11T12:15:15.682Z,0.20
2019-03-11T12:17:44.027Z,0.20
2019-03-11T12:20:14.730Z,0.20
2019-03-11T12:22:43.028Z,0.60
2019-03-11T12:25:11.447Z,0.13
2019-03-11T12:27:39.698Z,0.20
2019-03-11T12:30:11.719Z,0.27
2019-03-11T12:32:40.123Z,0.20
2019-03-11T12:35:08.791Z,0.30
2019-03-11T12:37:37.162Z,0.30
2019-03-11T12:40:05.684Z,0.20
2019-03-11T12:42:33.842Z,0.30
2019-03-11T12:45:01.961Z,0.30
2019-03-11T12:47:30.106Z,0.10
2019-03-11T12:49:58.208Z,0.23
2019-03-11T12:52:26.354Z,0.23
2019-03-11T12:54:54.453Z,0.30
2019-03-11T12:57:22.626Z,0.10
2019-03-11T12:59:50.726Z,0.17
2019-03-11T13:02:18.999Z,0.10
2019-03-11T13:04:47.109Z,0.20
2019-03-11T13:07:15.427Z,0.30
2019-03-11T13:09:43.583Z,0.20
2019-03-11T13:12:11.736Z,0.20
2019-03-11T13:14:39.925Z,0.30
2019-03-11T13:17:08.197Z,0.23
2019-03-11T13:19:36.289Z,0.30
2019-03-11T13:22:04.547Z,0.20
2019-03-11T13:24:33.443Z,0.30
2019-03-11T13:27:01.628Z,0.33
2019-03-11T13:29:29.744Z,0.30
2019-03-11T13:31:58.050Z,0.20
2019-03-11T13:34:26.151Z,0.30
2019-03-11T13:36:54.707Z,0.30
2019-03-11T13:39:22.882Z,0.50
2019-03-11T13:41:53.077Z,0.30
2019-03-11T13:44:21.236Z,0.30
2019-03-11T13:46:49.456Z,0.37
2019-03-11T13:49:17.795Z,0.30
2019-03-11T13:51:46.016Z,0.43
2019-03-11T13:54:14.378Z,0.50
2019-03-11T13:56:42.582Z,0.30
2019-03-11T13:59:10.747Z,0.83
2019-03-11T14:01:38.963Z,0.30
2019-03-11T14:04:07.204Z,0.60
2019-03-11T14:06:35.307Z,0.43
2019-03-11T14:09:05.522Z,0.30
2019-03-11T14:11:33.744Z,0.63
2019-03-11T14:14:02.106Z,0.60
2019-03-11T14:16:30.623Z,0.53
2019-03-11T14:18:58.783Z,0.53
2019-03-11T14:21:27.117Z,0.60
2019-03-11T14:23:55.273Z,0.50
2019-03-11T14:26:23.529Z,0.60
2019-03-11T14:28:51.702Z,0.60
2019-03-11T14:31:19.799Z,0.50
2019-03-11T14:33:47.952Z,0.90
2019-03-11T14:36:16.157Z,0.40
2019-03-11T14:38:44.899Z,0.50
2019-03-11T14:41:13.214Z,0.70
2019-03-11T14:43:41.379Z,0.43
2019-03-11T14:46:09.671Z,0.57
2019-03-11T14:48:37.930Z,0.60
2019-03-11T14:51:06.131Z,0.60
2019-03-11T14:53:34.295Z,0.77
2019-03-11T14:56:02.410Z,0.50
2019-03-11T14:58:30.654Z,0.70
2019-03-11T15:00:58.850Z,0.50
2019-03-11T15:03:27.099Z,0.57
2019-03-11T15:05:55.207Z,0.43
2019-03-11T15:08:23.521Z,0.50
2019-03-11T15:10:51.747Z,0.50
2019-03-11T15:13:20.294Z,0.50
2019-03-11T15:15:48.941Z,0.70
2019-03-11T15:18:17.388Z,0.50
2019-03-11T15:20:45.546Z,0.80
2019-03-11T15:23:20.399Z,0.50
2019-03-11T15:25:43.802Z,0.57
2019-03-11T15:28:13.215Z,0.87
2019-03-11T15:30:41.771Z,0.47
2019-03-11T15:33:10.075Z,0.70
2019-03-11T15:35:39.424Z,0.60
2019-03-11T15:38:08.439Z,0.70
2019-03-11T15:40:36.599Z,0.53
2019-03-11T15:43:05.194Z,0.40
2019-03-11T15:45:38.687Z,0.60
2019-03-11T15:48:03.501Z,0.50
2019-03-11T15:50:31.803Z,0.60
2019-03-11T15:53:00.021Z,1.00
2019-03-11T15:55:28.390Z,0.47
2019-03-11T15:57:56.705Z,0.70
2019-03-11T16:00:25.203Z,0.50
2019-03-11T16:02:53.522Z,0.73
2019-03-11T16:05:22.017Z,0.93
2019-03-11T16:07:50.501Z,0.70
2019-03-11T16:10:19.060Z,0.63
2019-03-11T16:12:47.883Z,0.50
2019-03-11T16:15:16.909Z,0.50
2019-03-11T16:17:45.324Z,0.60
2019-03-11T16:20:14.221Z,0.70
2019-03-11T16:22:42.431Z,0.50
2019-03-11T16:25:10.979Z,0.40
2019-03-11T16:27:40.043Z,0.80
2019-03-11T16:30:11.480Z,0.63
2019-03-11T16:32:57.093Z,0.50
2019-03-11T16:35:09.858Z,0.60
2019-03-11T16:37:38.164Z,0.50
2019-03-11T16:40:07.228Z,0.60
2019-03-11T16:42:35.441Z,0.40
2019-03-11T16:45:05.164Z,0.50
2019-03-11T16:47:33.776Z,0.40
2019-03-11T16:50:01.927Z,0.60
2019-03-11T16:52:31.584Z,0.60
2019-03-11T16:54:59.734Z,0.53
2019-03-11T16:57:28.299Z,0.57
2019-03-11T16:59:56.555Z,0.97
2019-03-11T17:02:24.668Z,0.50
2019-03-11T17:04:53.026Z,0.40
2019-03-11T17:07:21.136Z,0.43
2019-03-11T17:09:49.405Z,0.50
2019-03-11T17:12:17.987Z,0.60
2019-03-11T17:14:46.637Z,0.63
2019-03-11T17:17:15.360Z,0.40
2019-03-11T17:19:43.668Z,0.50
2019-03-11T17:22:11.923Z,0.70
2019-03-11T17:24:40.334Z,0.50
2019-03-11T17:27:08.478Z,0.77
2019-03-11T17:29:36.582Z,0.50
2019-03-11T17:32:05.085Z,0.50
2019-03-11T17:34:33.198Z,0.60
2019-03-11T17:37:01.366Z,0.60
2019-03-11T17:39:29.579Z,0.60
2019-03-11T17:41:57.931Z,0.53
2019-03-11T17:44:26.050Z,0.40
2019-03-11T17:46:54.208Z,0.70
2019-03-11T17:49:22.306Z,3.17
2019-03-11T17:51:50.894Z,1.00
2019-03-11T17:54:19.099Z,1.53
2019-03-11T17:56:47.256Z,0.50
2019-03-11T17:59:15.370Z,0.60
2019-03-11T18:01:43.645Z,0.80
2019-03-11T18:04:11.876Z,0.60
2019-03-11T18:06:40.578Z,0.60
2019-03-11T18:09:09.138Z,0.70
2019-03-11T18:11:39.964Z,0.90
2019-03-11T18:14:09.458Z,0.70
2019-03-11T18:16:38.163Z,0.83
2019-03-11T18:19:06.726Z,1.00
2019-03-11T18:21:35.087Z,0.80
2019-03-11T18:24:03.296Z,0.80
2019-03-11T18:26:32.945Z,1.23
2019-03-11T18:29:01.933Z,0.70
2019-03-11T18:31:30.481Z,0.80
2019-03-11T18:33:59.786Z,0.80
2019-03-11T18:36:30.669Z,1.10
2019-03-11T18:38:59.424Z,0.90
2019-03-11T18:41:27.662Z,1.00
2019-03-11T18:43:55.779Z,1.57
2019-03-11T18:46:24.483Z,1.10
2019-03-11T18:48:53.064Z,0.83
2019-03-11T18:51:21.247Z,0.63
2019-03-11T18:53:49.402Z,0.63
2019-03-11T18:56:17.506Z,0.87
2019-03-11T18:58:45.813Z,1.00
2019-03-11T19:01:14.066Z,0.60
2019-03-11T19:03:42.665Z,0.90
2019-03-11T19:06:11.699Z,0.60
2019-03-11T19:08:40.151Z,0.77
2019-03-11T19:11:08.461Z,0.70
2019-03-11T19:13:36.769Z,0.70
2019-03-11T19:16:05.435Z,0.80
2019-03-11T19:18:36.338Z,1.00
2019-03-11T19:21:06.063Z,0.60
2019-03-11T19:23:36.192Z,0.53
2019-03-11T19:26:04.805Z,0.60
2019-03-11T19:28:34.186Z,0.50
2019-03-11T19:31:02.490Z,0.70
2019-03-11T19:33:30.764Z,0.67
2019-03-11T19:35:58.974Z,0.80
2019-03-11T19:38:27.968Z,0.97
2019-03-11T19:40:56.139Z,0.90
2019-03-11T19:43:24.520Z,1.00
2019-03-11T19:45:52.668Z,1.87
2019-03-11T19:48:20.993Z,2.83
2019-03-11T19:50:49.647Z,1.27
2019-03-11T19:53:18.428Z,1.10
2019-03-11T19:55:47.640Z,0.90
2019-03-11T19:58:16.086Z,1.00
2019-03-11T20:00:44.308Z,0.70
2019-03-11T20:03:22.952Z,0.67
2019-03-11T20:05:43.209Z,0.60
2019-03-11T20:08:11.577Z,1.03
2019-03-11T20:10:40.050Z,0.70
2019-03-11T20:13:11.305Z,1.00
2019-03-11T20:15:39.507Z,0.53
2019-03-11T20:18:10.098Z,0.97
2019-03-11T20:20:38.451Z,0.60
2019-03-11T20:23:08.615Z,0.73
2019-03-11T20:25:37.041Z,0.70
2019-03-11T20:28:05.499Z,0.90
2019-03-11T20:30:33.925Z,0.80
2019-03-11T20:33:03.993Z,0.97
2019-03-11T20:35:32.615Z,0.83
2019-03-11T20:38:02.092Z,0.60
2019-03-11T20:40:30.463Z,0.90
2019-03-11T20:42:58.714Z,1.10
2019-03-11T20:45:26.914Z,0.70
2019-03-11T20:47:55.788Z,1.13
2019-03-11T20:50:23.998Z,0.80
2019-03-11T20:52:52.243Z,0.83
2019-03-11T20:55:33.926Z,0.63
2019-03-11T20:58:01.143Z,0.63
2019-03-11T21:00:31.739Z,1.07
2019-03-11T21:03:00.117Z,0.80
2019-03-11T21:05:30.542Z,0.63
2019-03-11T21:08:00.203Z,0.83
2019-03-11T21:10:35.987Z,0.60
2019-03-11T21:13:04.713Z,1.00
2019-03-11T21:15:33.539Z,0.90
2019-03-11T21:18:03.697Z,0.60
2019-03-11T21:20:33.989Z,0.93
2019-03-11T21:23:04.580Z,1.00
2019-03-11T21:25:41.319Z,0.90
2019-03-11T21:28:05.365Z,0.80
2019-03-11T21:30:36.894Z,1.20
2019-03-11T21:33:05.312Z,0.90
2019-03-11T21:35:34.369Z,0.80
2019-03-11T21:38:03.135Z,0.90
2019-03-11T21:40:32.661Z,0.90
2019-03-11T21:43:12.229Z,1.03
2019-03-11T21:45:41.626Z,0.90
2019-03-11T21:48:31.654Z,0.80
2019-03-11T21:51:10.581Z,0.83
2019-03-11T21:53:50.880Z,0.60
2019-03-11T21:56:18.938Z,0.73
2019-03-11T21:58:47.477Z,0.80
2019-03-11T22:01:16.881Z,0.90
2019-03-11T22:03:45.586Z,0.80
2019-03-11T22:06:18.378Z,1.30
2019-03-11T22:08:46.782Z,1.90
2019-03-11T22:11:15.103Z,1.43
2019-03-11T22:13:44.233Z,1.37
2019-03-11T22:16:12.389Z,1.70
2019-03-11T22:18:40.801Z,1.17
2019-03-11T22:21:08.941Z,0.77
2019-03-11T22:23:37.059Z,0.80
2019-03-11T22:26:05.977Z,0.80
2019-03-11T22:28:34.106Z,1.30
2019-03-11T22:31:02.349Z,0.70
2019-03-11T22:33:30.450Z,1.00
2019-03-11T22:35:58.585Z,1.00
2019-03-11T22:38:26.786Z,1.00
2019-03-11T22:40:55.066Z,1.07
2019-03-11T22:43:24.795Z,1.17
2019-03-11T22:45:52.953Z,0.77
2019-03-11T22:48:21.191Z,0.70
2019-03-11T22:50:49.379Z,1.10
2019-03-11T22:53:19.849Z,0.90
2019-03-11T22:55:52.386Z,0.93
2019-03-11T22:58:23.770Z,1.43
2019-03-11T23:01:01.451Z,0.80
2019-03-11T23:03:32.386Z,1.20
2019-03-11T23:06:02.164Z,2.47
2019-03-11T23:08:33.994Z,1.20
2019-03-11T23:11:12.093Z,1.20
2019-03-11T23:13:42.741Z,1.00
2019-03-11T23:16:13.894Z,0.93
2019-03-11T23:18:59.694Z,1.00
2019-03-11T23:21:31.858Z,1.07
2019-03-11T23:24:09.909Z,1.03
2019-03-11T23:26:39.118Z,0.77
2019-03-11T23:29:09.320Z,1.00
2019-03-11T23:31:44.997Z,0.73
2019-03-11T23:34:14.220Z,1.03
2019-03-11T23:36:43.265Z,1.13
2019-03-11T23:39:19.830Z,1.10
2019-03-11T23:42:08.115Z,1.00
2019-03-11T23:44:50.598Z,0.90
2019-03-11T23:47:17.538Z,1.00
2019-03-11T23:49:57.362Z,0.90
2019-03-11T23:52:49.186Z,2.73
2019-03-11T23:55:36.390Z,1.57
2019-03-11T23:58:05.359Z,1.07
